Time;durP1;ratioP1;P1;durP2;ratioP2;P2;SDS_P1;SDS_P2;PMS_P1;PMS_P2;Temp;Humidity;BMP_temperature;BMP_pressure;BME280_temperature;BME280_humidity;BME280_pressure;Samples;Min_cycle;Max_cycle;Signal;HPM_P1;HPM_P2
2023/01/30 00:01:25;;;;;;;30.17;17.15;;;6.70;99.90;;;;;;4995802;28;20044;-88
2023/01/30 00:03:50;;;;;;;34.35;30.58;;;6.70;99.90;;;;;;5014598;28;20034;-88
2023/01/30 00:06:16;;;;;;;34.13;30.42;;;6.80;99.90;;;;;;4995569;28;20049;-89
2023/01/30 00:08:42;;;;;;;27.13;17.88;;;6.90;99.90;;;;;;4995970;28;20048;-90
2023/01/30 00:11:10;;;;;;;30.95;17.25;;;6.90;99.90;;;;;;4978466;28;20042;-90
2023/01/30 00:13:36;;;;;;;24.98;12.85;;;6.90;99.90;;;;;;4989933;28;20038;-90
2023/01/30 00:16:02;;;;;;;34.17;28.52;;;6.90;99.90;;;;;;4994858;28;20053;-89
2023/01/30 00:18:27;;;;;;;33.40;28.35;;;6.90;99.90;;;;;;4978341;28;20042;-90
2023/01/30 00:20:57;;;;;;;30.45;26.15;;;6.90;99.90;;;;;;4994805;28;20045;-87
2023/01/30 00:23:24;;;;;;;28.35;15.38;;;7.00;99.90;;;;;;4994438;28;20052;-90
2023/01/30 00:25:50;;;;;;;22.52;15.82;;;7.10;99.90;;;;;;4977043;28;20038;-90
2023/01/30 00:28:15;;;;;;;32.90;28.83;;;7.10;99.90;;;;;;4993764;28;20061;-89
2023/01/30 00:30:41;;;;;;;21.77;14.43;;;7.10;99.90;;;;;;4977576;28;20113;-91
2023/01/30 00:33:08;;;;;;;31.02;26.67;;;7.00;99.90;;;;;;4993254;28;20133;-87
2023/01/30 00:35:33;;;;;;;29.25;16.30;;;7.00;99.90;;;;;;5010261;28;20100;-88
2023/01/30 00:38:00;;;;;;;31.25;26.92;;;7.10;99.90;;;;;;4994644;28;20071;-88
2023/01/30 00:40:27;;;;;;;25.15;14.38;;;7.10;99.90;;;;;;4993768;28;20046;-88
2023/01/30 00:48:23;;;;;;;29.48;18.55;;;7.10;99.90;;;;;;4995096;28;20125;-87
2023/01/30 00:50:49;;;;;;;32.15;27.42;;;7.10;99.90;;;;;;4992882;28;20113;-88
2023/01/30 00:53:15;;;;;;;30.95;27.63;;;7.10;99.90;;;;;;4993021;28;20065;-89
2023/01/30 00:55:42;;;;;;;27.88;17.83;;;7.10;99.90;;;;;;4993371;28;20403;-88
2023/01/30 00:58:08;;;;;;;22.63;12.90;;;7.10;99.90;;;;;;4992970;28;20057;-89
2023/01/30 01:00:34;;;;;;;29.38;17.95;;;7.20;99.90;;;;;;4993455;28;20038;-89
2023/01/30 01:03:00;;;;;;;32.42;27.58;;;7.10;99.90;;;;;;4993466;28;20115;-88
2023/01/30 01:05:26;;;;;;;26.15;17.30;;;7.10;99.90;;;;;;4993353;28;20718;-88
2023/01/30 01:07:51;;;;;;;30.85;25.45;;;7.10;99.90;;;;;;4990897;28;20132;-88
2023/01/30 01:10:17;;;;;;;29.27;26.13;;;7.10;99.90;;;;;;5010053;28;20038;-87
2023/01/30 01:12:43;;;;;;;31.92;26.10;;;7.10;99.90;;;;;;4976292;28;20483;-86
2023/01/30 01:15:10;;;;;;;20.77;13.57;;;7.10;99.90;;;;;;4993090;28;20089;-87
2023/01/30 01:17:37;;;;;;;27.42;16.45;;;7.00;99.90;;;;;;4994807;28;20479;-88
2023/01/30 01:20:04;;;;;;;34.30;27.77;;;7.00;99.90;;;;;;4977904;28;20046;-89
2023/01/30 01:22:29;;;;;;;31.00;26.85;;;7.00;99.90;;;;;;4993488;28;20084;-89
2023/01/30 01:24:55;;;;;;;22.80;13.27;;;7.00;99.90;;;;;;4975764;28;20446;-90
2023/01/30 01:27:20;;;;;;;29.10;23.02;;;7.00;99.90;;;;;;4974720;28;20043;-90
2023/01/30 01:29:46;;;;;;;16.50;9.52;;;7.00;99.90;;;;;;4986342;28;20038;-90
2023/01/30 01:32:12;;;;;;;28.08;22.77;;;7.10;99.90;;;;;;4992575;28;20049;-89
2023/01/30 01:34:37;;;;;;;22.25;13.55;;;7.00;99.90;;;;;;4993372;28;20403;-87
2023/01/30 01:37:03;;;;;;;27.73;21.90;;;7.00;99.90;;;;;;4994377;28;20074;-91
2023/01/30 01:41:00;;;;;;;15.05;9.77;;;7.00;99.90;;;;;;4993841;28;20049;-87
2023/01/30 01:42:14;;;;;;;23.52;18.08;;;7.10;99.90;;;;;;5002556;28;20084;-88
2023/01/30 01:45:00;;;;;;;18.88;10.05;;;7.10;99.90;;;;;;4978106;28;20483;-90
2023/01/30 01:47:27;;;;;;;15.95;8.65;;;7.20;99.90;;;;;;4983994;28;20346;-89
2023/01/30 01:49:52;;;;;;;21.77;16.05;;;7.10;99.90;;;;;;4985540;28;20058;-90
2023/01/30 01:52:18;;;;;;;18.30;14.13;;;7.10;99.90;;;;;;4975551;28;20046;-88
2023/01/30 01:54:51;;;;;;;11.18;5.78;;;7.20;99.90;;;;;;4992430;28;20422;-87
2023/01/30 01:57:24;;;;;;;16.00;12.15;;;7.20;99.90;;;;;;4988447;28;20352;-87
2023/01/30 01:59:55;;;;;;;12.02;6.43;;;7.20;99.90;;;;;;4991847;28;20452;-88
2023/01/30 02:02:20;;;;;;;16.83;11.98;;;7.20;99.90;;;;;;4988583;28;20395;-89
2023/01/30 02:05:01;;;;;;;17.55;10.50;;;7.20;99.90;;;;;;4988487;28;20078;-90
2023/01/30 02:07:32;;;;;;;8.13;4.07;;;7.20;99.90;;;;;;4971431;28;20291;-90
2023/01/30 02:09:57;;;;;;;15.98;9.45;;;7.30;99.90;;;;;;4969546;28;20069;-91
2023/01/30 02:12:24;;;;;;;15.68;9.90;;;7.20;99.90;;;;;;4986814;28;20034;-87
2023/01/30 02:14:52;;;;;;;16.38;10.13;;;7.20;99.90;;;;;;4985672;28;20132;-89
2023/01/30 02:17:19;;;;;;;10.55;4.45;;;7.30;99.90;;;;;;4990365;28;20049;-88
2023/01/30 02:20:01;;;;;;;13.15;7.72;;;7.30;99.90;;;;;;4975898;28;20486;-86
2023/01/30 02:22:46;;;;;;;8.13;3.63;;;7.30;99.90;;;;;;4975121;28;20152;-87
2023/01/30 02:25:22;;;;;;;14.45;8.27;;;7.30;99.90;;;;;;4991130;28;20038;-88
2023/01/30 02:28:06;;;;;;;7.85;3.78;;;7.30;99.90;;;;;;4992434;28;20418;-88
2023/01/30 02:30:41;;;;;;;7.32;3.33;;;7.30;99.90;;;;;;4992426;28;20093;-89
2023/01/30 02:33:33;;;;;;;12.77;7.53;;;7.30;99.90;;;;;;4990668;28;20170;-87
2023/01/30 02:36:05;;;;;;;12.73;6.80;;;7.30;99.90;;;;;;4971709;28;20174;-88
2023/01/30 02:38:57;;;;;;;8.27;3.45;;;7.40;99.90;;;;;;4988156;28;20045;-88
2023/01/30 02:41:31;;;;;;;7.10;3.58;;;7.30;99.90;;;;;;4989458;28;20036;-87
2023/01/30 02:44:07;;;;;;;12.55;7.00;;;7.30;99.90;;;;;;4990649;28;20041;-87
2023/01/30 02:46:54;;;;;;;12.77;7.35;;;7.40;99.90;;;;;;4984653;28;20176;-86
2023/01/30 02:49:29;;;;;;;13.90;6.80;;;7.40;99.90;;;;;;4989983;28;20056;-86
2023/01/30 02:51:58;;;;;;;13.75;7.25;;;7.40;99.90;;;;;;4989574;28;20668;-89
2023/01/30 02:54:23;;;;;;;12.95;7.38;;;7.40;99.90;;;;;;4988722;28;20093;-88
2023/01/30 02:56:55;;;;;;;9.80;2.75;;;7.50;99.90;;;;;;4988473;28;20050;-87
2023/01/30 02:59:43;;;;;;;9.77;3.55;;;7.50;99.90;;;;;;4970301;28;20046;-88
2023/01/30 03:02:33;;;;;;;9.15;4.00;;;7.50;99.90;;;;;;4989367;28;20099;-87
2023/01/30 03:05:10;;;;;;;14.77;7.38;;;7.50;99.90;;;;;;4976015;28;20046;-87
2023/01/30 03:07:53;;;;;;;16.98;7.95;;;7.50;99.90;;;;;;4991480;28;20606;-87
2023/01/30 03:10:29;;;;;;;7.70;3.65;;;7.50;99.90;;;;;;4986177;28;20043;-88
2023/01/30 03:13:18;;;;;;;8.95;4.18;;;7.50;99.90;;;;;;4989829;28;20376;-89
2023/01/30 03:15:57;;;;;;;15.13;8.05;;;7.50;99.90;;;;;;4978964;28;20086;-88
2023/01/30 03:18:23;;;;;;;16.15;8.15;;;7.50;99.90;;;;;;4978752;28;20048;-89
2023/01/30 03:20:48;;;;;;;11.18;3.83;;;7.60;99.90;;;;;;4992701;28;20046;-88
2023/01/30 03:23:14;;;;;;;18.52;7.75;;;7.60;99.90;;;;;;4989854;28;20058;-88
2023/01/30 03:25:42;;;;;;;10.93;3.58;;;7.60;99.90;;;;;;4989121;28;20035;-86
2023/01/30 03:28:08;;;;;;;18.83;8.52;;;7.60;99.90;;;;;;4991583;28;20053;-87
2023/01/30 03:30:34;;;;;;;15.00;7.65;;;7.60;99.90;;;;;;4991324;28;20043;-88
2023/01/30 03:33:00;;;;;;;18.45;8.30;;;7.60;99.90;;;;;;4989976;28;20403;-87
2023/01/30 03:35:25;;;;;;;11.02;4.38;;;7.60;99.90;;;;;;4992292;28;20058;-86
2023/01/30 03:37:51;;;;;;;15.18;5.30;;;7.60;99.90;;;;;;4980791;28;20049;-88
2023/01/30 03:40:17;;;;;;;19.02;7.43;;;7.70;99.90;;;;;;4998092;28;20498;-87
2023/01/30 03:42:43;;;;;;;16.80;6.75;;;7.70;99.90;;;;;;4995467;28;20487;-88
2023/01/30 03:45:09;;;;;;;11.60;4.88;;;7.70;99.90;;;;;;4977908;28;20109;-87
2023/01/30 03:47:35;;;;;;;17.70;7.07;;;7.70;99.90;;;;;;4989210;28;20391;-87
2023/01/30 03:50:01;;;;;;;10.98;3.45;;;7.70;99.90;;;;;;4991065;28;20050;-88
2023/01/30 03:52:26;;;;;;;18.38;6.88;;;7.70;99.90;;;;;;4989188;28;20157;-89
2023/01/30 03:54:52;;;;;;;12.82;3.55;;;7.70;99.90;;;;;;4992312;28;20046;-86
2023/01/30 03:57:18;;;;;;;15.48;6.38;;;7.70;99.90;;;;;;4990976;28;20038;-87
2023/01/30 03:59:43;;;;;;;15.63;5.72;;;7.70;99.90;;;;;;4971628;28;20046;-87
2023/01/30 04:02:10;;;;;;;9.70;3.03;;;7.80;99.90;;;;;;4988826;28;20403;-86
2023/01/30 04:04:35;;;;;;;16.90;6.00;;;7.80;99.90;;;;;;4994255;28;20483;-89
2023/01/30 04:07:01;;;;;;;15.80;5.90;;;7.80;99.90;;;;;;4984996;28;20043;-86
2023/01/30 04:09:26;;;;;;;17.05;6.22;;;7.80;99.90;;;;;;4987447;28;20161;-88
2023/01/30 04:11:52;;;;;;;19.65;6.60;;;7.80;99.90;;;;;;4993190;28;20074;-87
2023/01/30 04:14:18;;;;;;;8.05;2.22;;;7.70;99.90;;;;;;4995221;28;20038;-87
2023/01/30 04:16:44;;;;;;;16.40;6.28;;;7.80;99.90;;;;;;4994205;28;20042;-88
2023/01/30 04:19:10;;;;;;;17.80;6.25;;;7.70;99.90;;;;;;4993528;28;20038;-89
2023/01/30 04:21:35;;;;;;;20.73;6.65;;;7.80;99.90;;;;;;4992140;28;20038;-87
2023/01/30 04:24:01;;;;;;;20.50;7.05;;;7.80;99.90;;;;;;4993144;28;20089;-87
2023/01/30 04:26:26;;;;;;;11.00;3.05;;;7.70;99.90;;;;;;4993256;28;20042;-87
2023/01/30 04:28:52;;;;;;;12.65;3.13;;;7.70;99.90;;;;;;4993202;28;20034;-89
2023/01/30 04:31:18;;;;;;;20.75;6.97;;;7.70;99.90;;;;;;4993389;28;20099;-88
2023/01/30 04:33:43;;;;;;;19.30;6.10;;;7.60;99.90;;;;;;4993237;28;20046;-89
2023/01/30 04:36:10;;;;;;;20.83;6.82;;;7.60;99.90;;;;;;4993325;28;20066;-86
2023/01/30 04:38:36;;;;;;;12.52;3.60;;;7.60;99.90;;;;;;4993425;28;20042;-88
2023/01/30 04:41:02;;;;;;;11.68;3.28;;;7.60;99.90;;;;;;4994196;28;20088;-88
2023/01/30 04:43:28;;;;;;;18.40;5.45;;;7.60;99.90;;;;;;4977517;28;20878;-88
2023/01/30 04:45:54;;;;;;;18.80;6.35;;;7.60;99.90;;;;;;4993206;28;20046;-87
2023/01/30 04:48:22;;;;;;;6.95;2.67;;;7.60;99.90;;;;;;4978321;28;20039;-88
2023/01/30 04:50:49;;;;;;;14.88;4.45;;;7.60;99.90;;;;;;4993593;28;20046;-88
2023/01/30 04:53:16;;;;;;;16.05;5.47;;;7.50;99.90;;;;;;4993068;28;20026;-87
2023/01/30 04:55:42;;;;;;;19.45;5.57;;;7.50;99.90;;;;;;4977283;28;20042;-88
2023/01/30 04:58:07;;;;;;;15.65;5.28;;;7.50;99.90;;;;;;4992514;28;20060;-89
2023/01/30 05:00:33;;;;;;;19.33;5.63;;;7.40;99.90;;;;;;4994927;28;20039;-87
2023/01/30 05:02:58;;;;;;;9.73;2.78;;;7.40;99.90;;;;;;4993117;28;20121;-88
2023/01/30 05:05:25;;;;;;;16.38;5.85;;;7.40;99.90;;;;;;4993548;28;20046;-88
2023/01/30 05:07:51;;;;;;;18.30;5.75;;;7.40;99.90;;;;;;4992537;28;20038;-88
2023/01/30 05:10:17;;;;;;;18.63;5.85;;;7.40;99.90;;;;;;4978333;28;20334;-87
2023/01/30 05:12:43;;;;;;;7.70;2.95;;;7.40;99.90;;;;;;4976243;28;20076;-88
2023/01/30 05:15:09;;;;;;;18.15;5.70;;;7.30;99.90;;;;;;4992380;28;20154;-89
2023/01/30 05:17:35;;;;;;;11.85;3.08;;;7.30;99.90;;;;;;4983233;28;20046;-88
2023/01/30 05:20:01;;;;;;;15.68;5.78;;;7.20;99.90;;;;;;4973070;28;20046;-88
2023/01/30 05:22:26;;;;;;;12.38;2.58;;;7.20;99.90;;;;;;4987795;28;20480;-89
2023/01/30 05:24:52;;;;;;;10.05;2.75;;;7.20;99.90;;;;;;4976330;28;20512;-89
2023/01/30 05:27:18;;;;;;;20.85;5.50;;;7.10;99.90;;;;;;4975848;28;20042;-89
2023/01/30 05:29:43;;;;;;;14.00;2.50;;;7.20;99.90;;;;;;4992664;28;20041;-89
2023/01/30 05:32:14;;;;;;;17.67;5.53;;;7.10;99.90;;;;;;4991847;28;20494;-87
2023/01/30 05:34:39;;;;;;;11.88;2.50;;;7.10;99.90;;;;;;4974675;28;20061;-87
2023/01/30 05:37:05;;;;;;;12.93;3.03;;;7.10;99.90;;;;;;4990925;28;20491;-88
2023/01/30 05:39:31;;;;;;;15.77;5.30;;;7.10;99.90;;;;;;4993258;28;20062;-89
2023/01/30 05:41:56;;;;;;;17.33;5.47;;;7.10;99.90;;;;;;4992284;28;20122;-87
2023/01/30 05:44:22;;;;;;;8.38;2.60;;;7.10;99.90;;;;;;4993202;28;20066;-89
2023/01/30 05:46:48;;;;;;;16.48;3.15;;;7.00;99.90;;;;;;4992213;28;20034;-90
2023/01/30 05:49:13;;;;;;;15.18;5.00;;;7.00;99.90;;;;;;4990722;28;20039;-90
2023/01/30 05:51:39;;;;;;;20.40;5.68;;;6.90;99.90;;;;;;4975203;28;20031;-88
2023/01/30 05:54:05;;;;;;;9.65;2.05;;;6.70;99.90;;;;;;4991998;28;20360;-90
2023/01/30 05:56:32;;;;;;;11.55;2.50;;;6.80;99.90;;;;;;4992473;28;20050;-90
2023/01/30 05:58:59;;;;;;;24.23;5.47;;;6.70;99.90;;;;;;4990809;28;20050;-90
2023/01/30 06:01:25;;;;;;;16.70;3.10;;;6.80;99.90;;;;;;4992190;28;20038;-89
2023/01/30 06:03:52;;;;;;;19.52;5.53;;;6.70;99.90;;;;;;4992432;28;20066;-89
2023/01/30 06:06:18;;;;;;;17.27;2.92;;;6.70;99.90;;;;;;4975157;28;20042;-89
2023/01/30 06:08:44;;;;;;;19.23;5.57;;;6.60;99.90;;;;;;4992263;28;20048;-88
2023/01/30 06:11:15;;;;;;;13.93;2.78;;;6.50;99.90;;;;;;4992424;28;20033;-88
2023/01/30 06:13:41;;;;;;;;;;;6.50;99.90;;;;;;4993051;28;20370;-90
2023/01/30 06:16:09;;;;;;;17.08;2.83;;;6.50;99.90;;;;;;4989008;28;19929;-90
2023/01/30 06:18:35;;;;;;;14.20;3.83;;;6.60;99.90;;;;;;4969367;28;20038;-89
2023/01/30 06:21:00;;;;;;;11.20;2.60;;;6.60;99.90;;;;;;4991035;28;20042;-90
2023/01/30 06:23:27;;;;;;;17.38;4.35;;;6.50;99.90;;;;;;4969976;28;20045;-88
2023/01/30 06:25:54;;;;;;;13.35;2.85;;;6.60;99.90;;;;;;4986694;28;20030;-94
2023/01/30 06:28:21;;;;;;;13.80;2.65;;;6.50;99.90;;;;;;4993458;28;20046;-92
2023/01/30 06:30:47;;;;;;;15.95;3.30;;;6.40;99.90;;;;;;4992964;28;20042;-91
2023/01/30 06:33:13;;;;;;;10.77;3.47;;;6.40;99.90;;;;;;4997747;28;20050;-94
2023/01/30 06:35:40;;;;;;;21.45;4.85;;;6.40;99.90;;;;;;5001003;28;20045;-93
2023/01/30 06:38:08;;;;;;;9.93;3.25;;;6.50;99.90;;;;;;4999397;28;20125;-93
2023/01/30 06:40:34;;;;;;;7.68;1.52;;;6.50;99.90;;;;;;4995769;28;20047;-93
2023/01/30 06:42:59;;;;;;;6.72;1.95;;;6.50;99.90;;;;;;4998795;28;20042;-93
2023/01/30 06:45:25;;;;;;;6.50;1.80;;;6.60;99.90;;;;;;4997213;28;20042;-89
2023/01/30 06:47:53;;;;;;;15.30;2.83;;;6.60;99.90;;;;;;4994602;28;20101;-92
2023/01/30 06:50:20;;;;;;;22.02;5.07;;;6.70;99.90;;;;;;4994369;28;20137;-92
2023/01/30 06:52:48;;;;;;;15.80;2.85;;;6.70;99.90;;;;;;4977589;28;20038;-90
2023/01/30 06:55:16;;;;;;;18.73;3.03;;;6.60;99.90;;;;;;4992653;28;20487;-90
2023/01/30 06:57:42;;;;;;;10.15;2.08;;;6.70;99.90;;;;;;4992590;28;20061;-89
2023/01/30 07:00:14;;;;;;;19.67;5.45;;;6.60;99.90;;;;;;4994635;28;20053;-91
2023/01/30 07:02:40;;;;;;;21.92;5.70;;;6.60;99.90;;;;;;4996722;28;20491;-93
2023/01/30 07:05:07;;;;;;;14.77;2.10;;;6.60;99.90;;;;;;4994393;28;20046;-90
2023/01/30 07:07:33;;;;;;;20.63;5.60;;;6.60;99.90;;;;;;4979852;28;20038;-93
2023/01/30 07:09:59;;;;;;;13.40;2.83;;;6.60;99.90;;;;;;4993414;28;20491;-90
2023/01/30 07:12:25;;;;;;;16.92;3.58;;;6.50;99.90;;;;;;4989531;28;20454;-91
2023/01/30 07:14:52;;;;;;;25.83;6.35;;;6.50;99.90;;;;;;4979250;28;20126;-95
2023/01/30 07:17:18;;;;;;;11.35;2.70;;;6.50;99.90;;;;;;4995069;28;20038;-91
2023/01/30 07:19:44;;;;;;;9.52;2.10;;;6.50;99.90;;;;;;4992150;28;20045;-88
2023/01/30 07:22:10;;;;;;;13.75;2.53;;;6.50;99.90;;;;;;4992353;28;20034;-89
2023/01/30 07:24:35;;;;;;;23.88;5.60;;;6.50;99.90;;;;;;4993022;28;20045;-90
2023/01/30 07:27:01;;;;;;;12.43;2.88;;;6.50;99.90;;;;;;4991757;28;20035;-89
2023/01/30 07:29:26;;;;;;;12.48;2.88;;;6.50;99.90;;;;;;4988405;28;21462;-91
2023/01/30 07:31:52;;;;;;;22.55;4.82;;;6.50;99.90;;;;;;4991552;28;20034;-91
2023/01/30 07:34:18;;;;;;;20.33;5.20;;;6.60;99.90;;;;;;4993692;28;20145;-90
2023/01/30 07:36:43;;;;;;;23.90;5.93;;;6.60;99.90;;;;;;4978967;28;20041;-88
2023/01/30 07:39:09;;;;;;;14.07;3.65;;;6.60;99.90;;;;;;4972802;28;20034;-91
2023/01/30 07:41:35;;;;;;;13.98;2.83;;;6.60;99.90;;;;;;4977151;28;20113;-88
2023/01/30 07:44:01;;;;;;;10.40;1.90;;;6.60;99.90;;;;;;4994993;28;20038;-89
2023/01/30 07:46:33;;;;;;;10.98;1.77;;;6.60;99.90;;;;;;4979132;28;20038;-89
2023/01/30 07:49:04;;;;;;;12.52;2.33;;;6.60;99.90;;;;;;4996042;28;20113;-89
2023/01/30 07:51:30;;;;;;;10.98;1.63;;;6.60;99.90;;;;;;4994822;28;20399;-89
2023/01/30 07:53:55;;;;;;;14.63;2.70;;;6.60;99.90;;;;;;4985786;28;20031;-87
2023/01/30 07:56:21;;;;;;;21.90;6.10;;;6.60;99.90;;;;;;4989805;28;20031;-89
2023/01/30 07:58:47;;;;;;;12.88;2.40;;;6.70;99.90;;;;;;4977583;28;20100;-88
2023/01/30 08:01:13;;;;;;;17.38;4.68;;;6.80;99.90;;;;;;4994454;28;20038;-87
2023/01/30 08:03:39;;;;;;;14.75;2.65;;;6.80;99.90;;;;;;4995395;28;20042;-88
2023/01/30 08:06:05;;;;;;;16.70;3.15;;;6.90;99.90;;;;;;4993430;28;20149;-88
2023/01/30 08:08:30;;;;;;;16.52;3.85;;;6.80;99.90;;;;;;5003940;28;20034;-87
2023/01/30 08:10:56;;;;;;;18.27;5.03;;;6.80;99.90;;;;;;4995052;28;20451;-90
2023/01/30 08:13:22;;;;;;;20.48;5.07;;;6.90;99.90;;;;;;4993109;28;20042;-90
2023/01/30 08:15:47;;;;;;;12.43;3.05;;;7.00;99.90;;;;;;4993980;28;20054;-91
2023/01/30 08:18:13;;;;;;;23.85;6.20;;;7.00;99.90;;;;;;4995150;28;20040;-91
2023/01/30 08:20:38;;;;;;;12.30;2.75;;;7.00;99.90;;;;;;4993939;28;20038;-89
2023/01/30 08:23:04;;;;;;;21.02;5.65;;;7.00;99.90;;;;;;4993445;28;20050;-87
2023/01/30 08:25:30;;;;;;;15.00;2.72;;;7.00;99.90;;;;;;4976419;28;20042;-90
2023/01/30 08:27:58;;;;;;;20.02;5.38;;;7.00;99.90;;;;;;4969313;28;20121;-87
2023/01/30 08:30:23;;;;;;;13.07;1.83;;;7.00;99.90;;;;;;4990758;28;20045;-88
2023/01/30 08:32:49;;;;;;;23.08;6.90;;;6.90;99.90;;;;;;4975135;28;20038;-90
2023/01/30 08:35:15;;;;;;;27.58;4.25;;;7.00;99.90;;;;;;4977377;28;20097;-91
2023/01/30 08:37:41;;;;;;;14.40;3.05;;;7.00;99.90;;;;;;4977808;28;20035;-92
2023/01/30 08:40:08;;;;;;;20.45;5.45;;;7.00;99.90;;;;;;4995000;28;20090;-90
2023/01/30 08:42:34;;;;;;;23.13;6.57;;;7.10;99.90;;;;;;4994652;28;20546;-91
2023/01/30 08:45:00;;;;;;;21.60;6.43;;;7.10;99.90;;;;;;4978596;28;20073;-94
2023/01/30 08:47:25;;;;;;;22.48;5.88;;;7.10;99.90;;;;;;4978598;28;20483;-91
2023/01/30 08:49:51;;;;;;;9.45;2.10;;;7.10;99.90;;;;;;4981204;28;20072;-92
2023/01/30 08:52:18;;;;;;;13.48;2.85;;;7.10;99.90;;;;;;4997307;28;20035;-96
2023/01/30 08:54:43;;;;;;;16.33;3.28;;;7.10;99.90;;;;;;4979690;28;20387;-90
2023/01/30 08:57:09;;;;;;;21.38;5.45;;;7.10;99.90;;;;;;4975675;28;20077;-90
2023/01/30 08:59:35;;;;;;;12.70;3.00;;;7.10;99.90;;;;;;4969010;28;20383;-88
2023/01/30 09:02:01;;;;;;;22.60;5.72;;;7.10;99.90;;;;;;4991832;28;20045;-91
2023/01/30 09:04:29;;;;;;;11.38;2.75;;;7.10;99.90;;;;;;4978942;28;20073;-89
2023/01/30 09:06:54;;;;;;;11.57;2.88;;;7.20;99.90;;;;;;4990535;28;20042;-85
2023/01/30 09:09:20;;;;;;;9.80;2.70;;;7.20;99.90;;;;;;4995094;28;20031;-94
2023/01/30 09:11:48;;;;;;;14.27;2.90;;;7.20;99.90;;;;;;4975576;28;20395;-87
2023/01/30 09:14:18;;;;;;;20.80;5.32;;;7.20;99.90;;;;;;4974719;28;20054;-86
2023/01/30 09:16:54;;;;;;;17.13;4.40;;;7.20;99.90;;;;;;4987684;28;20038;-90
2023/01/30 09:19:21;;;;;;;10.82;3.53;;;7.20;99.90;;;;;;4974382;28;20046;-89
2023/01/30 09:21:48;;;;;;;20.55;5.43;;;7.30;99.90;;;;;;4988715;28;20081;-90
2023/01/30 09:24:14;;;;;;;20.05;6.03;;;7.30;99.90;;;;;;4992616;28;20074;-90
2023/01/30 09:26:43;;;;;;;19.42;5.40;;;7.40;99.90;;;;;;4990985;28;20069;-87
2023/01/30 09:29:13;;;;;;;15.00;3.67;;;7.40;99.90;;;;;;4990415;28;20454;-90
2023/01/30 09:31:39;;;;;;;13.85;2.65;;;7.50;99.90;;;;;;4974690;28;20043;-90
2023/01/30 09:34:06;;;;;;;18.90;5.18;;;7.40;99.90;;;;;;4975891;28;20065;-87
2023/01/30 09:36:32;;;;;;;25.88;6.85;;;7.50;99.90;;;;;;4992874;28;20045;-90
2023/01/30 09:38:57;;;;;;;19.23;5.60;;;7.40;99.90;;;;;;4971463;28;20038;-87
2023/01/30 09:41:38;;;;;;;21.98;5.93;;;7.40;99.90;;;;;;4991734;28;20038;-93
2023/01/30 09:44:04;;;;;;;16.23;4.13;;;7.40;99.90;;;;;;4979555;28;20085;-93
2023/01/30 09:46:59;;;;;;;11.48;2.67;;;7.40;99.90;;;;;;4973156;28;20084;-88
2023/01/30 09:49:44;;;;;;;18.88;5.65;;;7.50;99.90;;;;;;4978085;28;20192;-92
2023/01/30 09:52:32;;;;;;;25.05;6.95;;;7.70;99.90;;;;;;4998995;28;20114;-93
2023/01/30 09:55:16;;;;;;;22.55;5.80;;;7.70;99.90;;;;;;4975258;28;20026;-84
2023/01/30 09:57:42;;;;;;;12.82;3.05;;;7.70;99.90;;;;;;4976312;28;20096;-88
2023/01/30 10:00:28;;;;;;;13.25;2.42;;;7.80;99.90;;;;;;4978408;28;20043;-90
2023/01/30 10:03:15;;;;;;;26.42;5.60;;;7.80;99.90;;;;;;4986221;28;20041;-87
2023/01/30 10:05:50;;;;;;;21.90;6.25;;;7.80;99.90;;;;;;4977290;28;20496;-88
2023/01/30 10:08:40;;;;;;;22.83;5.50;;;7.80;99.90;;;;;;4975429;28;20042;-84
2023/01/30 10:11:15;;;;;;;21.45;5.78;;;7.90;99.90;;;;;;4988089;28;20443;-85
2023/01/30 10:13:49;;;;;;;24.15;6.65;;;7.90;99.90;;;;;;4988875;28;20042;-88
2023/01/30 10:16:15;;;;;;;18.30;4.20;;;7.90;99.90;;;;;;4990785;28;20056;-89
2023/01/30 10:19:11;;;;;;;22.15;5.43;;;8.00;99.90;;;;;;4990212;28;20042;-88
2023/01/30 10:22:08;;;;;;;23.13;6.22;;;8.00;99.90;;;;;;4974250;28;20042;-88
2023/01/30 10:24:51;;;;;;;22.80;6.05;;;8.00;99.90;;;;;;4991107;28;20054;-87
2023/01/30 10:27:20;;;;;;;18.08;4.85;;;8.00;99.90;;;;;;4986385;28;20139;-85
2023/01/30 10:29:55;;;;;;;12.23;3.38;;;8.10;99.90;;;;;;4989684;28;20062;-88
2023/01/30 10:32:34;;;;;;;17.65;3.45;;;8.10;99.90;;;;;;4991690;28;20523;-88
2023/01/30 10:35:12;;;;;;;20.33;5.85;;;8.20;99.90;;;;;;4976273;28;20105;-88
2023/01/30 10:37:50;;;;;;;25.48;6.63;;;8.20;99.90;;;;;;4973990;28;20050;-88
2023/01/30 10:40:38;;;;;;;12.30;3.88;;;8.20;99.90;;;;;;4973396;28;20054;-89
2023/01/30 10:43:22;;;;;;;23.75;6.93;;;8.20;99.90;;;;;;4992481;28;20121;-89
2023/01/30 10:46:09;;;;;;;12.38;3.17;;;8.20;99.90;;;;;;4991097;28;20049;-90
2023/01/30 10:48:38;;;;;;;24.58;6.72;;;8.30;99.90;;;;;;4991902;28;20047;-89
2023/01/30 10:51:31;;;;;;;26.52;6.60;;;8.30;99.90;;;;;;4985107;28;20038;-88
2023/01/30 10:54:12;;;;;;;19.77;5.13;;;8.30;99.90;;;;;;4968105;28;20058;-87
2023/01/30 10:57:03;;;;;;;19.15;5.43;;;8.40;99.90;;;;;;5004843;28;20049;-88
2023/01/30 11:00:09;;;;;;;12.20;4.20;;;8.40;99.90;;;;;;4988132;28;20486;-88
2023/01/30 11:02:51;;;;;;;21.98;5.70;;;8.50;99.90;;;;;;4967916;28;20038;-89
2023/01/30 11:05:21;;;;;;;25.73;6.75;;;8.60;99.90;;;;;;4973787;28;20093;-87
2023/01/30 11:07:47;;;;;;;21.67;6.68;;;8.60;99.90;;;;;;4990918;28;20097;-87
2023/01/30 11:10:25;;;;;;;19.70;5.88;;;8.70;99.90;;;;;;4973027;28;20064;-86
2023/01/30 11:13:13;;;;;;;24.33;6.03;;;8.50;99.90;;;;;;4990664;28;20429;-90
2023/01/30 11:15:45;;;;;;;25.00;6.68;;;8.40;99.90;;;;;;4994470;28;20049;-86
2023/01/30 11:18:13;;;;;;;23.65;7.20;;;8.20;99.90;;;;;;4991660;28;20121;-89
2023/01/30 11:20:45;;;;;;;27.70;6.85;;;7.80;99.90;;;;;;4994746;28;20046;-87
2023/01/30 11:23:41;;;;;;;26.67;4.43;;;7.30;99.90;;;;;;4992976;28;20046;-89
2023/01/30 11:26:16;;;;;;;18.67;4.18;;;7.00;99.90;;;;;;4984658;28;20047;-86
2023/01/30 11:28:44;;;;;;;27.98;7.32;;;6.80;99.90;;;;;;4992281;28;20109;-86
2023/01/30 11:31:39;;;;;;;22.77;6.60;;;6.70;99.90;;;;;;4984443;28;20043;-85
2023/01/30 11:34:14;;;;;;;15.70;3.95;;;6.80;99.90;;;;;;4969680;28;20431;-86
2023/01/30 11:36:39;;;;;;;18.65;5.32;;;7.00;99.90;;;;;;4992535;28;20084;-84
2023/01/30 11:39:11;;;;;;;14.40;2.33;;;7.10;99.90;;;;;;4993624;28;20078;-89
2023/01/30 11:41:41;;;;;;;19.27;4.72;;;7.30;99.90;;;;;;4992845;28;20034;-88
2023/01/30 11:44:09;;;;;;;18.42;5.30;;;7.40;99.90;;;;;;4992341;28;20043;-87
2023/01/30 11:46:39;;;;;;;15.52;3.00;;;7.50;99.90;;;;;;4987559;28;20086;-84
2023/01/30 11:49:14;;;;;;;21.13;5.40;;;7.60;99.90;;;;;;4992232;28;20577;-83
2023/01/30 11:51:43;;;;;;;18.33;4.13;;;7.80;99.90;;;;;;4989153;28;20510;-86
2023/01/30 11:54:19;;;;;;;20.77;5.15;;;7.80;99.90;;;;;;4988978;28;20049;-85
2023/01/30 11:56:51;;;;;;;11.18;2.53;;;7.80;99.90;;;;;;4970318;28;20042;-83
2023/01/30 11:59:33;;;;;;;12.38;2.83;;;7.50;99.90;;;;;;4982732;28;20038;-86
2023/01/30 12:02:11;;;;;;;16.55;3.45;;;7.30;99.90;;;;;;4982416;28;20121;-86
2023/01/30 12:04:37;;;;;;;21.35;6.55;;;7.00;99.90;;;;;;4992585;28;20116;-86
2023/01/30 12:07:24;;;;;;;18.63;5.75;;;6.90;99.90;;;;;;4990772;28;20549;-86
2023/01/30 12:09:50;;;;;;;13.02;3.40;;;7.00;99.90;;;;;;4985295;28;20042;-86
2023/01/30 12:12:30;;;;;;;13.85;2.25;;;6.90;99.90;;;;;;4992541;28;20034;-87
2023/01/30 12:15:23;;;;;;;11.40;3.45;;;6.90;99.90;;;;;;4993691;28;20026;-87
2023/01/30 12:18:03;;;;;;;7.85;1.52;;;7.00;99.90;;;;;;4992032;28;20043;-86
2023/01/30 12:20:53;;;;;;;12.30;1.67;;;6.90;99.90;;;;;;4991786;28;20070;-86
2023/01/30 12:23:32;;;;;;;9.88;1.55;;;6.90;99.90;;;;;;5009382;28;20050;-86
2023/01/30 12:26:12;;;;;;;6.82;1.25;;;7.00;99.90;;;;;;4993143;28;20042;-87
2023/01/30 12:28:46;;;;;;;11.93;2.63;;;7.10;99.90;;;;;;4985228;28;20399;-85
2023/01/30 12:31:35;;;;;;;8.63;1.55;;;7.30;99.90;;;;;;4984894;28;20046;-87
2023/01/30 12:34:02;;;;;;;10.18;2.00;;;7.50;99.90;;;;;;4978765;28;20077;-84
2023/01/30 12:36:49;;;;;;;5.05;1.40;;;7.60;99.90;;;;;;4980659;28;20050;-87
2023/01/30 12:39:42;;;;;;;10.48;2.42;;;7.60;99.90;;;;;;4984950;28;20053;-86
2023/01/30 12:42:26;;;;;;;13.30;3.60;;;7.60;99.90;;;;;;4981814;28;20077;-86
2023/01/30 12:45:15;;;;;;;15.25;4.30;;;7.60;99.90;;;;;;4982461;28;20042;-85
2023/01/30 12:48:07;;;;;;;16.33;4.40;;;7.60;99.90;;;;;;4984249;28;20046;-85
2023/01/30 12:50:38;;;;;;;9.00;1.60;;;7.70;99.90;;;;;;4981202;28;20030;-86
2023/01/30 12:53:20;;;;;;;;;;;7.70;99.90;;;;;;4984605;28;20415;-86
2023/01/30 12:56:16;;;;;;;15.38;3.92;;;7.70;99.90;;;;;;4987283;28;19921;-84
2023/01/30 12:59:02;;;;;;;9.27;3.08;;;7.70;99.90;;;;;;4975069;28;20117;-85
2023/01/30 13:01:55;;;;;;;17.08;3.67;;;7.70;99.90;;;;;;4987628;28;20042;-84
2023/01/30 13:04:23;;;;;;;13.75;3.92;;;7.60;99.90;;;;;;4981989;28;20046;-86
2023/01/30 13:07:27;;;;;;;12.43;2.40;;;7.70;99.90;;;;;;4985466;28;20047;-84
2023/01/30 13:10:20;;;;;;;7.60;1.90;;;7.60;99.90;;;;;;4894898;29;20052;-86
2023/01/30 13:12:45;;;;;;;9.35;1.70;;;7.70;99.90;;;;;;4898122;29;20042;-86